sensor_id;sensor_type;location;lat;lon;timestamp;P1;durP1;ratioP1;P2;durP2;ratioP2
69327;SDS011;56472;52.114;5.492;2023-04-01T00:01:41;14.77;;;9.48;;
69327;SDS011;56472;52.114;5.492;2023-04-01T00:04:08;26.88;;;10.80;;
69327;SDS011;56472;52.114;5.492;2023-04-01T00:06:35;18.60;;;10.27;;
69327;SDS011;56472;52.114;5.492;2023-04-01T00:09:02;33.22;;;11.10;;
69327;SDS011;56472;52.114;5.492;2023-04-01T00:11:30;26.27;;;12.57;;
69327;SDS011;56472;52.114;5.492;2023-04-01T00:13:58;31.02;;;13.93;;
69327;SDS011;56472;52.114;5.492;2023-04-01T00:16:25;21.48;;;12.10;;
69327;SDS011;56472;52.114;5.492;2023-04-01T00:18:52;39.17;;;14.20;;
69327;SDS011;56472;52.114;5.492;2023-04-01T00:21:19;26.50;;;13.05;;
69327;SDS011;56472;52.114;5.492;2023-04-01T00:23:49;31.05;;;13.90;;
69327;SDS011;56472;52.114;5.492;2023-04-01T00:26:17;41.33;;;14.05;;
69327;SDS011;56472;52.114;5.492;2023-04-01T00:28:47;26.30;;;13.20;;
69327;SDS011;56472;52.114;5.492;2023-04-01T00:31:14;27.13;;;13.27;;
69327;SDS011;56472;52.114;5.492;2023-04-01T00:33:41;27.52;;;13.20;;
69327;SDS011;56472;52.114;5.492;2023-04-01T00:36:12;29.45;;;15.05;;
69327;SDS011;56472;52.114;5.492;2023-04-01T00:38:41;31.70;;;13.75;;
69327;SDS011;56472;52.114;5.492;2023-04-01T00:41:09;31.75;;;14.13;;
69327;SDS011;56472;52.114;5.492;2023-04-01T00:43:41;37.38;;;14.93;;
69327;SDS011;56472;52.114;5.492;2023-04-01T00:46:12;33.53;;;15.98;;
69327;SDS011;56472;52.114;5.492;2023-04-01T00:48:42;42.63;;;15.65;;
69327;SDS011;56472;52.114;5.492;2023-04-01T00:51:20;40.28;;;16.23;;
69327;SDS011;56472;52.114;5.492;2023-04-01T00:53:50;47.50;;;17.27;;
69327;SDS011;56472;52.114;5.492;2023-04-01T00:56:30;45.92;;;17.02;;
69327;SDS011;56472;52.114;5.492;2023-04-01T00:59:10;36.75;;;17.08;;
69327;SDS011;56472;52.114;5.492;2023-04-01T01:01:41;39.63;;;17.92;;
69327;SDS011;56472;52.114;5.492;2023-04-01T01:04:20;43.65;;;15.80;;
69327;SDS011;56472;52.114;5.492;2023-04-01T01:09:38;39.40;;;16.03;;
69327;SDS011;56472;52.114;5.492;2023-04-01T01:31:43;51.50;;;20.35;;
69327;SDS011;56472;52.114;5.492;2023-04-01T01:36:38;39.13;;;16.25;;
69327;SDS011;56472;52.114;5.492;2023-04-01T01:39:08;49.08;;;17.20;;
69327;SDS011;56472;52.114;5.492;2023-04-01T01:41:36;36.85;;;15.80;;
69327;SDS011;56472;52.114;5.492;2023-04-01T01:44:06;39.53;;;15.57;;
69327;SDS011;56472;52.114;5.492;2023-04-01T01:46:37;33.88;;;14.45;;
69327;SDS011;56472;52.114;5.492;2023-04-01T01:49:06;30.80;;;13.80;;
69327;SDS011;56472;52.114;5.492;2023-04-01T01:51:36;24.60;;;12.25;;
69327;SDS011;56472;52.114;5.492;2023-04-01T01:54:05;25.90;;;13.02;;
69327;SDS011;56472;52.114;5.492;2023-04-01T01:56:32;28.50;;;13.25;;
69327;SDS011;56472;52.114;5.492;2023-04-01T01:59:03;24.40;;;9.70;;
69327;SDS011;56472;52.114;5.492;2023-04-01T02:01:34;22.95;;;10.35;;
69327;SDS011;56472;52.114;5.492;2023-04-01T02:04:09;12.65;;;5.65;;
69327;SDS011;56472;52.114;5.492;2023-04-01T02:06:38;13.88;;;8.10;;
69327;SDS011;56472;52.114;5.492;2023-04-01T02:09:10;16.10;;;8.55;;
69327;SDS011;56472;52.114;5.492;2023-04-01T02:11:39;16.52;;;8.30;;
69327;SDS011;56472;52.114;5.492;2023-04-01T02:14:22;24.00;;;10.40;;
69327;SDS011;56472;52.114;5.492;2023-04-01T02:17:02;26.77;;;11.15;;
69327;SDS011;56472;52.114;5.492;2023-04-01T02:19:34;21.15;;;10.48;;
69327;SDS011;56472;52.114;5.492;2023-04-01T02:22:07;20.08;;;10.70;;
69327;SDS011;56472;52.114;5.492;2023-04-01T02:24:37;27.75;;;12.70;;
69327;SDS011;56472;52.114;5.492;2023-04-01T02:27:06;18.27;;;10.07;;
69327;SDS011;56472;52.114;5.492;2023-04-01T02:29:35;14.27;;;7.88;;
69327;SDS011;56472;52.114;5.492;2023-04-01T02:32:05;13.55;;;7.93;;
69327;SDS011;56472;52.114;5.492;2023-04-01T02:34:34;13.70;;;7.47;;
69327;SDS011;56472;52.114;5.492;2023-04-01T02:37:01;16.92;;;8.63;;
69327;SDS011;56472;52.114;5.492;2023-04-01T02:39:28;14.93;;;7.28;;
69327;SDS011;56472;52.114;5.492;2023-04-01T02:41:55;16.38;;;7.72;;
69327;SDS011;56472;52.114;5.492;2023-04-01T02:44:22;12.55;;;7.78;;
69327;SDS011;56472;52.114;5.492;2023-04-01T02:46:49;18.95;;;7.82;;
69327;SDS011;56472;52.114;5.492;2023-04-01T02:49:16;15.75;;;8.60;;
69327;SDS011;56472;52.114;5.492;2023-04-01T02:51:44;15.77;;;9.40;;
69327;SDS011;56472;52.114;5.492;2023-04-01T02:54:11;8.77;;;7.15;;
69327;SDS011;56472;52.114;5.492;2023-04-01T02:56:38;15.45;;;8.70;;
69327;SDS011;56472;52.114;5.492;2023-04-01T02:59:05;11.98;;;8.13;;
69327;SDS011;56472;52.114;5.492;2023-04-01T03:01:32;13.30;;;7.68;;
69327;SDS011;56472;52.114;5.492;2023-04-01T03:03:59;14.25;;;7.38;;
69327;SDS011;56472;52.114;5.492;2023-04-01T03:06:26;5.57;;;4.97;;
69327;SDS011;56472;52.114;5.492;2023-04-01T03:08:53;16.92;;;7.07;;
69327;SDS011;56472;52.114;5.492;2023-04-01T03:11:20;11.10;;;7.57;;
69327;SDS011;56472;52.114;5.492;2023-04-01T03:13:47;9.63;;;6.68;;
69327;SDS011;56472;52.114;5.492;2023-04-01T03:16:15;13.02;;;7.00;;
69327;SDS011;56472;52.114;5.492;2023-04-01T03:18:42;14.35;;;7.88;;
69327;SDS011;56472;52.114;5.492;2023-04-01T03:21:13;14.85;;;8.20;;
69327;SDS011;56472;52.114;5.492;2023-04-01T03:23:48;14.23;;;7.68;;
69327;SDS011;56472;52.114;5.492;2023-04-01T03:26:16;14.93;;;7.65;;
69327;SDS011;56472;52.114;5.492;2023-04-01T03:28:43;13.05;;;7.03;;
69327;SDS011;56472;52.114;5.492;2023-04-01T03:31:11;12.45;;;7.25;;
69327;SDS011;56472;52.114;5.492;2023-04-01T03:33:45;13.13;;;7.13;;
69327;SDS011;56472;52.114;5.492;2023-04-01T03:36:12;11.20;;;6.47;;
69327;SDS011;56472;52.114;5.492;2023-04-01T03:38:42;11.13;;;6.57;;
69327;SDS011;56472;52.114;5.492;2023-04-01T03:41:15;7.75;;;5.80;;
69327;SDS011;56472;52.114;5.492;2023-04-01T03:43:43;8.45;;;6.35;;
69327;SDS011;56472;52.114;5.492;2023-04-01T03:46:11;10.00;;;6.30;;
69327;SDS011;56472;52.114;5.492;2023-04-01T03:48:42;9.55;;;6.43;;
69327;SDS011;56472;52.114;5.492;2023-04-01T03:51:09;12.70;;;7.10;;
69327;SDS011;56472;52.114;5.492;2023-04-01T03:53:36;12.98;;;7.57;;
69327;SDS011;56472;52.114;5.492;2023-04-01T03:56:05;12.75;;;6.25;;
69327;SDS011;56472;52.114;5.492;2023-04-01T03:58:34;10.15;;;5.97;;
69327;SDS011;56472;52.114;5.492;2023-04-01T04:01:12;9.85;;;6.57;;
69327;SDS011;56472;52.114;5.492;2023-04-01T04:03:52;13.73;;;7.95;;
69327;SDS011;56472;52.114;5.492;2023-04-01T04:06:20;18.65;;;9.20;;
69327;SDS011;56472;52.114;5.492;2023-04-01T04:08:49;16.30;;;8.13;;
69327;SDS011;56472;52.114;5.492;2023-04-01T04:11:16;18.30;;;9.15;;
69327;SDS011;56472;52.114;5.492;2023-04-01T04:13:44;24.92;;;9.57;;
69327;SDS011;56472;52.114;5.492;2023-04-01T04:16:11;18.13;;;9.27;;
69327;SDS011;56472;52.114;5.492;2023-04-01T04:18:43;21.10;;;9.45;;
69327;SDS011;56472;52.114;5.492;2023-04-01T04:21:11;20.70;;;9.45;;
69327;SDS011;56472;52.114;5.492;2023-04-01T04:23:40;22.88;;;10.35;;
69327;SDS011;56472;52.114;5.492;2023-04-01T04:26:09;29.40;;;10.82;;
69327;SDS011;56472;52.114;5.492;2023-04-01T04:28:38;24.10;;;10.57;;
69327;SDS011;56472;52.114;5.492;2023-04-01T04:31:05;27.05;;;11.18;;
69327;SDS011;56472;52.114;5.492;2023-04-01T04:33:33;27.17;;;11.60;;
69327;SDS011;56472;52.114;5.492;2023-04-01T04:36:02;34.28;;;12.23;;
69327;SDS011;56472;52.114;5.492;2023-04-01T04:38:30;31.92;;;11.68;;
69327;SDS011;56472;52.114;5.492;2023-04-01T04:40:58;39.75;;;13.23;;
69327;SDS011;56472;52.114;5.492;2023-04-01T04:43:25;31.52;;;12.50;;
69327;SDS011;56472;52.114;5.492;2023-04-01T04:45:52;29.00;;;11.57;;
69327;SDS011;56472;52.114;5.492;2023-04-01T04:48:19;28.42;;;12.77;;
69327;SDS011;56472;52.114;5.492;2023-04-01T04:50:47;28.27;;;11.52;;
69327;SDS011;56472;52.114;5.492;2023-04-01T04:53:17;22.98;;;10.23;;
69327;SDS011;56472;52.114;5.492;2023-04-01T04:55:46;27.77;;;11.60;;
69327;SDS011;56472;52.114;5.492;2023-04-01T04:58:31;28.70;;;11.43;;
69327;SDS011;56472;52.114;5.492;2023-04-01T05:00:59;27.00;;;11.40;;
69327;SDS011;56472;52.114;5.492;2023-04-01T05:03:31;25.88;;;10.60;;
69327;SDS011;56472;52.114;5.492;2023-04-01T05:05:59;26.35;;;11.00;;
69327;SDS011;56472;52.114;5.492;2023-04-01T05:08:25;26.90;;;10.30;;
69327;SDS011;56472;52.114;5.492;2023-04-01T05:10:53;24.20;;;9.48;;
69327;SDS011;56472;52.114;5.492;2023-04-01T05:13:20;21.80;;;9.20;;
69327;SDS011;56472;52.114;5.492;2023-04-01T05:15:47;34.60;;;10.85;;
69327;SDS011;56472;52.114;5.492;2023-04-01T05:18:15;32.05;;;10.68;;
69327;SDS011;56472;52.114;5.492;2023-04-01T05:20:46;31.90;;;10.15;;
69327;SDS011;56472;52.114;5.492;2023-04-01T05:23:17;32.47;;;10.30;;
69327;SDS011;56472;52.114;5.492;2023-04-01T05:25:48;22.15;;;8.15;;
69327;SDS011;56472;52.114;5.492;2023-04-01T05:28:16;31.23;;;9.25;;
69327;SDS011;56472;52.114;5.492;2023-04-01T05:30:45;18.38;;;7.85;;
69327;SDS011;56472;52.114;5.492;2023-04-01T05:33:27;21.52;;;8.15;;
69327;SDS011;56472;52.114;5.492;2023-04-01T05:35:56;17.60;;;7.55;;
69327;SDS011;56472;52.114;5.492;2023-04-01T05:38:31;9.75;;;5.55;;
69327;SDS011;56472;52.114;5.492;2023-04-01T05:40:59;15.68;;;7.60;;
69327;SDS011;56472;52.114;5.492;2023-04-01T05:43:27;12.88;;;7.00;;
69327;SDS011;56472;52.114;5.492;2023-04-01T05:46:03;18.95;;;8.07;;
69327;SDS011;56472;52.114;5.492;2023-04-01T05:48:36;27.52;;;9.65;;
69327;SDS011;56472;52.114;5.492;2023-04-01T05:51:03;20.08;;;8.77;;
69327;SDS011;56472;52.114;5.492;2023-04-01T05:53:30;17.83;;;8.10;;
69327;SDS011;56472;52.114;5.492;2023-04-01T05:56:01;16.02;;;7.43;;
69327;SDS011;56472;52.114;5.492;2023-04-01T05:58:33;13.63;;;6.88;;
69327;SDS011;56472;52.114;5.492;2023-04-01T06:01:04;18.90;;;7.50;;
69327;SDS011;56472;52.114;5.492;2023-04-01T06:03:38;9.27;;;5.38;;
69327;SDS011;56472;52.114;5.492;2023-04-01T06:06:08;14.07;;;5.80;;
69327;SDS011;56472;52.114;5.492;2023-04-01T06:08:42;7.13;;;4.22;;
69327;SDS011;56472;52.114;5.492;2023-04-01T06:11:23;10.52;;;5.53;;
69327;SDS011;56472;52.114;5.492;2023-04-01T06:19:31;4.78;;;3.45;;
69327;SDS011;56472;52.114;5.492;2023-04-01T06:25:02;10.25;;;4.65;;
69327;SDS011;56472;52.114;5.492;2023-04-01T06:36:02;8.30;;;5.05;;
69327;SDS011;56472;52.114;5.492;2023-04-01T06:42:02;7.57;;;4.55;;
69327;SDS011;56472;52.114;5.492;2023-04-01T06:51:32;6.88;;;4.32;;
69327;SDS011;56472;52.114;5.492;2023-04-01T06:54:26;8.35;;;5.07;;
69327;SDS011;56472;52.114;5.492;2023-04-01T07:00:03;7.68;;;4.93;;
69327;SDS011;56472;52.114;5.492;2023-04-01T07:03:00;7.22;;;4.38;;
69327;SDS011;56472;52.114;5.492;2023-04-01T07:05:32;6.72;;;3.83;;
69327;SDS011;56472;52.114;5.492;2023-04-01T07:08:02;4.60;;;3.03;;
69327;SDS011;56472;52.114;5.492;2023-04-01T07:10:34;3.47;;;2.30;;
69327;SDS011;56472;52.114;5.492;2023-04-01T07:13:45;2.35;;;2.08;;
69327;SDS011;56472;52.114;5.492;2023-04-01T07:19:03;4.28;;;2.65;;
69327;SDS011;56472;52.114;5.492;2023-04-01T07:22:04;3.10;;;2.55;;
69327;SDS011;56472;52.114;5.492;2023-04-01T07:28:34;5.82;;;3.28;;
69327;SDS011;56472;52.114;5.492;2023-04-01T07:37:18;7.70;;;4.40;;
69327;SDS011;56472;52.114;5.492;2023-04-01T07:45:29;8.27;;;4.43;;
69327;SDS011;56472;52.114;5.492;2023-04-01T07:48:01;8.13;;;5.60;;
69327;SDS011;56472;52.114;5.492;2023-04-01T07:51:05;7.55;;;5.47;;
69327;SDS011;56472;52.114;5.492;2023-04-01T07:58:53;11.52;;;6.70;;
69327;SDS011;56472;52.114;5.492;2023-04-01T08:07:17;11.18;;;6.00;;
69327;SDS011;56472;52.114;5.492;2023-04-01T08:13:35;12.35;;;7.38;;
69327;SDS011;56472;52.114;5.492;2023-04-01T08:22:04;23.42;;;6.90;;
69327;SDS011;56472;52.114;5.492;2023-04-01T08:24:45;10.10;;;6.22;;
69327;SDS011;56472;52.114;5.492;2023-04-01T08:27:22;13.70;;;7.15;;
69327;SDS011;56472;52.114;5.492;2023-04-01T08:33:01;9.68;;;6.32;;
69327;SDS011;56472;52.114;5.492;2023-04-01T08:35:40;12.60;;;7.20;;
69327;SDS011;56472;52.114;5.492;2023-04-01T08:38:28;10.30;;;6.68;;
69327;SDS011;56472;52.114;5.492;2023-04-01T08:41:14;11.32;;;7.05;;
69327;SDS011;56472;52.114;5.492;2023-04-01T09:12:51;13.85;;;7.93;;
69327;SDS011;56472;52.114;5.492;2023-04-01T09:21:22;11.93;;;7.88;;
69327;SDS011;56472;52.114;5.492;2023-04-01T09:37:57;12.02;;;8.43;;
69327;SDS011;56472;52.114;5.492;2023-04-01T10:26:03;7.10;;;6.40;;
69327;SDS011;56472;52.114;5.492;2023-04-01T10:46:47;6.60;;;5.05;;
69327;SDS011;56472;52.114;5.492;2023-04-01T11:24:30;2.10;;;2.00;;
69327;SDS011;56472;52.114;5.492;2023-04-01T11:27:30;2.72;;;2.63;;
69327;SDS011;56472;52.114;5.492;2023-04-01T11:30:22;2.08;;;1.98;;
69327;SDS011;56472;52.114;5.492;2023-04-01T11:39:03;2.08;;;1.98;;
69327;SDS011;56472;52.114;5.492;2023-04-01T11:48:19;1.60;;;1.60;;
69327;SDS011;56472;52.114;5.492;2023-04-01T12:11:41;1.40;;;1.40;;
69327;SDS011;56472;52.114;5.492;2023-04-01T12:22:00;1.80;;;1.70;;
69327;SDS011;56472;52.114;5.492;2023-04-01T12:55:48;8.00;;;7.13;;
69327;SDS011;56472;52.114;5.492;2023-04-01T13:14:57;11.27;;;8.25;;
69327;SDS011;56472;52.114;5.492;2023-04-01T13:20:27;10.75;;;8.10;;
69327;SDS011;56472;52.114;5.492;2023-04-01T13:23:09;12.27;;;8.93;;
69327;SDS011;56472;52.114;5.492;2023-04-01T13:28:27;10.40;;;8.10;;
69327;SDS011;56472;52.114;5.492;2023-04-01T13:36:44;6.28;;;4.90;;
69327;SDS011;56472;52.114;5.492;2023-04-01T13:42:38;9.63;;;5.03;;
69327;SDS011;56472;52.114;5.492;2023-04-01T13:45:21;5.82;;;4.68;;
69327;SDS011;56472;52.114;5.492;2023-04-01T13:50:26;4.78;;;4.25;;
69327;SDS011;56472;52.114;5.492;2023-04-01T14:00:05;5.32;;;4.15;;
69327;SDS011;56472;52.114;5.492;2023-04-01T14:10:31;10.55;;;5.22;;
69327;SDS011;56472;52.114;5.492;2023-04-01T14:15:42;6.85;;;5.97;;
69327;SDS011;56472;52.114;5.492;2023-04-01T14:22:03;6.00;;;5.40;;
69327;SDS011;56472;52.114;5.492;2023-04-01T14:27:35;8.13;;;5.82;;
69327;SDS011;56472;52.114;5.492;2023-04-01T14:44:00;5.35;;;4.82;;
69327;SDS011;56472;52.114;5.492;2023-04-01T14:49:42;5.28;;;4.78;;
69327;SDS011;56472;52.114;5.492;2023-04-01T14:52:23;7.63;;;4.88;;
69327;SDS011;56472;52.114;5.492;2023-04-01T14:54:57;4.78;;;4.38;;
69327;SDS011;56472;52.114;5.492;2023-04-01T14:57:29;4.68;;;4.38;;
69327;SDS011;56472;52.114;5.492;2023-04-01T15:00:18;5.18;;;4.78;;
69327;SDS011;56472;52.114;5.492;2023-04-01T15:05:16;5.55;;;5.05;;
69327;SDS011;56472;52.114;5.492;2023-04-01T15:16:03;9.88;;;4.68;;
69327;SDS011;56472;52.114;5.492;2023-04-01T15:23:46;4.40;;;4.10;;
69327;SDS011;56472;52.114;5.492;2023-04-01T15:39:54;4.85;;;3.22;;
69327;SDS011;56472;52.114;5.492;2023-04-01T15:50:21;4.07;;;3.28;;
69327;SDS011;56472;52.114;5.492;2023-04-01T16:07:29;3.90;;;3.70;;
69327;SDS011;56472;52.114;5.492;2023-04-01T16:10:17;4.15;;;3.90;;
69327;SDS011;56472;52.114;5.492;2023-04-01T16:15:50;4.65;;;4.35;;
69327;SDS011;56472;52.114;5.492;2023-04-01T16:21:01;3.85;;;3.65;;
69327;SDS011;56472;52.114;5.492;2023-04-01T16:26:43;4.60;;;4.20;;
69327;SDS011;56472;52.114;5.492;2023-04-01T16:40:36;4.97;;;4.20;;
69327;SDS011;56472;52.114;5.492;2023-04-01T16:46:08;4.90;;;4.60;;
69327;SDS011;56472;52.114;5.492;2023-04-01T16:51:47;4.68;;;4.38;;
69327;SDS011;56472;52.114;5.492;2023-04-01T16:56:54;4.75;;;4.00;;
69327;SDS011;56472;52.114;5.492;2023-04-01T17:02:12;4.25;;;3.97;;
69327;SDS011;56472;52.114;5.492;2023-04-01T17:05:00;4.10;;;3.88;;
69327;SDS011;56472;52.114;5.492;2023-04-01T17:21:02;4.20;;;3.95;;
69327;SDS011;56472;52.114;5.492;2023-04-01T17:23:53;4.57;;;4.28;;
69327;SDS011;56472;52.114;5.492;2023-04-01T17:26:46;5.05;;;3.92;;
69327;SDS011;56472;52.114;5.492;2023-04-01T17:29:55;4.82;;;4.50;;
69327;SDS011;56472;52.114;5.492;2023-04-01T17:37:57;5.05;;;4.55;;
69327;SDS011;56472;52.114;5.492;2023-04-01T17:51:58;4.90;;;4.40;;
69327;SDS011;56472;52.114;5.492;2023-04-01T18:20:09;6.15;;;4.63;;
69327;SDS011;56472;52.114;5.492;2023-04-01T18:23:29;5.00;;;4.53;;
69327;SDS011;56472;52.114;5.492;2023-04-01T18:25:48;5.00;;;4.63;;
69327;SDS011;56472;52.114;5.492;2023-04-01T18:28:39;5.30;;;4.80;;
69327;SDS011;56472;52.114;5.492;2023-04-01T18:31:20;5.55;;;4.80;;
69327;SDS011;56472;52.114;5.492;2023-04-01T18:39:22;5.18;;;4.78;;
69327;SDS011;56472;52.114;5.492;2023-04-01T18:44:57;8.45;;;4.80;;
69327;SDS011;56472;52.114;5.492;2023-04-01T18:50:43;5.80;;;5.40;;
69327;SDS011;56472;52.114;5.492;2023-04-01T18:53:23;5.65;;;5.25;;
69327;SDS011;56472;52.114;5.492;2023-04-01T18:56:11;5.38;;;5.00;;
69327;SDS011;56472;52.114;5.492;2023-04-01T18:58:48;5.88;;;5.38;;
69327;SDS011;56472;52.114;5.492;2023-04-01T19:04:37;5.35;;;4.95;;
69327;SDS011;56472;52.114;5.492;2023-04-01T19:10:21;5.40;;;5.00;;
69327;SDS011;56472;52.114;5.492;2023-04-01T19:21:10;5.07;;;4.63;;
69327;SDS011;56472;52.114;5.492;2023-04-01T19:26:31;4.88;;;4.57;;
69327;SDS011;56472;52.114;5.492;2023-04-01T19:52:00;4.05;;;3.85;;
69327;SDS011;56472;52.114;5.492;2023-04-01T20:16:38;6.15;;;5.07;;
69327;SDS011;56472;52.114;5.492;2023-04-01T20:19:37;5.60;;;5.10;;
69327;SDS011;56472;52.114;5.492;2023-04-01T20:22:29;6.35;;;5.80;;
69327;SDS011;56472;52.114;5.492;2023-04-01T20:36:16;8.20;;;7.53;;
69327;SDS011;56472;52.114;5.492;2023-04-01T20:53:15;8.73;;;7.93;;
69327;SDS011;56472;52.114;5.492;2023-04-01T21:09:53;8.18;;;7.38;;
69327;SDS011;56472;52.114;5.492;2023-04-01T21:12:53;8.00;;;7.20;;
69327;SDS011;56472;52.114;5.492;2023-04-01T21:15:31;10.45;;;7.43;;
69327;SDS011;56472;52.114;5.492;2023-04-01T21:18:14;7.65;;;6.82;;
69327;SDS011;56472;52.114;5.492;2023-04-01T21:27:05;7.57;;;6.63;;
69327;SDS011;56472;52.114;5.492;2023-04-01T21:35:18;7.10;;;5.75;;
69327;SDS011;56472;52.114;5.492;2023-04-01T21:40:49;6.43;;;5.88;;
69327;SDS011;56472;52.114;5.492;2023-04-01T22:06:56;6.90;;;6.32;;
69327;SDS011;56472;52.114;5.492;2023-04-01T22:09:39;7.47;;;6.78;;
69327;SDS011;56472;52.114;5.492;2023-04-01T22:14:59;7.57;;;6.82;;
69327;SDS011;56472;52.114;5.492;2023-04-01T22:17:43;6.90;;;6.07;;
69327;SDS011;56472;52.114;5.492;2023-04-01T22:28:27;7.90;;;7.10;;
69327;SDS011;56472;52.114;5.492;2023-04-01T22:31:03;10.38;;;7.40;;
69327;SDS011;56472;52.114;5.492;2023-04-01T22:33:38;9.18;;;7.45;;
69327;SDS011;56472;52.114;5.492;2023-04-01T22:47:57;11.82;;;8.23;;
69327;SDS011;56472;52.114;5.492;2023-04-01T22:50:22;8.88;;;7.97;;
69327;SDS011;56472;52.114;5.492;2023-04-01T22:53:00;9.07;;;8.18;;
69327;SDS011;56472;52.114;5.492;2023-04-01T22:55:42;9.55;;;8.55;;
69327;SDS011;56472;52.114;5.492;2023-04-01T22:58:24;9.13;;;8.23;;
69327;SDS011;56472;52.114;5.492;2023-04-01T23:01:03;9.27;;;8.18;;
69327;SDS011;56472;52.114;5.492;2023-04-01T23:03:43;8.65;;;7.78;;
69327;SDS011;56472;52.114;5.492;2023-04-01T23:06:25;10.73;;;8.50;;
69327;SDS011;56472;52.114;5.492;2023-04-01T23:08:57;10.15;;;7.45;;
69327;SDS011;56472;52.114;5.492;2023-04-01T23:11:54;8.48;;;7.68;;
69327;SDS011;56472;52.114;5.492;2023-04-01T23:14:28;9.15;;;7.97;;
69327;SDS011;56472;52.114;5.492;2023-04-01T23:25:11;9.38;;;8.13;;
69327;SDS011;56472;52.114;5.492;2023-04-01T23:27:47;8.93;;;8.10;;
69327;SDS011;56472;52.114;5.492;2023-04-01T23:33:50;8.85;;;7.93;;
69327;SDS011;56472;52.114;5.492;2023-04-01T23:35:58;10.65;;;8.52;;
69327;SDS011;56472;52.114;5.492;2023-04-01T23:38:34;10.68;;;8.35;;
69327;SDS011;56472;52.114;5.492;2023-04-01T23:41:09;10.10;;;8.02;;
69327;SDS011;56472;52.114;5.492;2023-04-01T23:43:56;11.57;;;8.60;;
69327;SDS011;56472;52.114;5.492;2023-04-01T23:46:31;9.50;;;8.25;;
69327;SDS011;56472;52.114;5.492;2023-04-01T23:49:01;9.52;;;8.48;;
69327;SDS011;56472;52.114;5.492;2023-04-01T23:51:37;9.85;;;8.82;;
69327;SDS011;56472;52.114;5.492;2023-04-01T23:54:32;17.05;;;10.13;;
69327;SDS011;56472;52.114;5.492;2023-04-01T23:57:09;10.27;;;8.63;;
69327;SDS011;56472;52.114;5.492;2023-04-01T23:59:40;11.40;;;9.18;;
